sensor_id;sensor_type;location;lat;lon;timestamp;pressure;altitude;pressure_sealevel;temperature;humidity
9899;BME280;4988;49.238;6.698;2023-05-12T00:01:49;98936.53;;;12.73;100.00
9899;BME280;4988;49.238;6.698;2023-05-12T00:04:14;98930.66;;;12.66;100.00
9899;BME280;4988;49.238;6.698;2023-05-12T00:06:40;98928.09;;;12.64;100.00
9899;BME280;4988;49.238;6.698;2023-05-12T00:09:05;98925.56;;;12.61;100.00
9899;BME280;4988;49.238;6.698;2023-05-12T00:11:30;98919.41;;;12.61;100.00
9899;BME280;4988;49.238;6.698;2023-05-12T00:13:56;98919.50;;;12.59;100.00
9899;BME280;4988;49.238;6.698;2023-05-12T00:16:21;98920.91;;;12.65;100.00
9899;BME280;4988;49.238;6.698;2023-05-12T00:18:47;98923.94;;;12.59;100.00
9899;BME280;4988;49.238;6.698;2023-05-12T00:21:12;98923.47;;;12.52;100.00
9899;BME280;4988;49.238;6.698;2023-05-12T00:23:38;98922.06;;;12.61;100.00
9899;BME280;4988;49.238;6.698;2023-05-12T00:26:03;98910.00;;;12.53;100.00
9899;BME280;4988;49.238;6.698;2023-05-12T00:28:29;98914.41;;;12.54;100.00
9899;BME280;4988;49.238;6.698;2023-05-12T00:30:55;98912.69;;;12.53;100.00
9899;BME280;4988;49.238;6.698;2023-05-12T00:33:21;98914.75;;;12.48;100.00
9899;BME280;4988;49.238;6.698;2023-05-12T00:35:46;98908.28;;;12.52;100.00
9899;BME280;4988;49.238;6.698;2023-05-12T00:38:12;98913.97;;;12.46;100.00
9899;BME280;4988;49.238;6.698;2023-05-12T00:40:38;98916.59;;;12.48;100.00
9899;BME280;4988;49.238;6.698;2023-05-12T00:43:03;98911.91;;;12.51;100.00
9899;BME280;4988;49.238;6.698;2023-05-12T00:45:29;98912.09;;;12.48;100.00
9899;BME280;4988;49.238;6.698;2023-05-12T00:47:55;98913.28;;;12.43;100.00
9899;BME280;4988;49.238;6.698;2023-05-12T00:50:21;98906.22;;;12.42;100.00
9899;BME280;4988;49.238;6.698;2023-05-12T00:52:47;98908.63;;;12.46;100.00
9899;BME280;4988;49.238;6.698;2023-05-12T00:55:13;98905.91;;;12.48;100.00
9899;BME280;4988;49.238;6.698;2023-05-12T00:57:39;98903.31;;;12.46;100.00
9899;BME280;4988;49.238;6.698;2023-05-12T01:00:05;98901.41;;;12.48;100.00
9899;BME280;4988;49.238;6.698;2023-05-12T01:02:31;98904.00;;;12.50;100.00
9899;BME280;4988;49.238;6.698;2023-05-12T01:04:56;98898.16;;;12.43;100.00
9899;BME280;4988;49.238;6.698;2023-05-12T01:07:23;98900.16;;;12.39;100.00
9899;BME280;4988;49.238;6.698;2023-05-12T01:09:53;98897.47;;;12.39;100.00
9899;BME280;4988;49.238;6.698;2023-05-12T01:12:19;98901.94;;;12.39;100.00
9899;BME280;4988;49.238;6.698;2023-05-12T01:14:45;98897.81;;;12.33;100.00
9899;BME280;4988;49.238;6.698;2023-05-12T01:17:11;98890.56;;;12.35;100.00
9899;BME280;4988;49.238;6.698;2023-05-12T01:19:46;98886.97;;;12.20;100.00
9899;BME280;4988;49.238;6.698;2023-05-12T01:22:14;98890.53;;;12.05;100.00
9899;BME280;4988;49.238;6.698;2023-05-12T01:24:54;98888.34;;;11.96;100.00
9899;BME280;4988;49.238;6.698;2023-05-12T01:27:22;98893.34;;;12.02;100.00
9899;BME280;4988;49.238;6.698;2023-05-12T01:29:50;98893.94;;;12.07;100.00
9899;BME280;4988;49.238;6.698;2023-05-12T01:32:17;98895.53;;;12.11;100.00
9899;BME280;4988;49.238;6.698;2023-05-12T01:34:42;98891.47;;;12.04;100.00
9899;BME280;4988;49.238;6.698;2023-05-12T01:37:08;98892.13;;;11.91;100.00
9899;BME280;4988;49.238;6.698;2023-05-12T01:39:34;98896.69;;;11.89;100.00
9899;BME280;4988;49.238;6.698;2023-05-12T01:42:01;98894.88;;;11.90;100.00
9899;BME280;4988;49.238;6.698;2023-05-12T01:44:26;98894.88;;;11.90;100.00
9899;BME280;4988;49.238;6.698;2023-05-12T01:46:51;98891.59;;;11.85;100.00
9899;BME280;4988;49.238;6.698;2023-05-12T01:49:16;98894.00;;;11.89;100.00
9899;BME280;4988;49.238;6.698;2023-05-12T01:51:42;98895.69;;;12.08;100.00
9899;BME280;4988;49.238;6.698;2023-05-12T01:54:07;98894.91;;;12.06;100.00
9899;BME280;4988;49.238;6.698;2023-05-12T01:56:32;98902.03;;;12.05;100.00
9899;BME280;4988;49.238;6.698;2023-05-12T01:58:58;98896.72;;;12.05;100.00
9899;BME280;4988;49.238;6.698;2023-05-12T02:01:23;98892.66;;;11.98;100.00
9899;BME280;4988;49.238;6.698;2023-05-12T02:03:53;98888.66;;;11.89;100.00
9899;BME280;4988;49.238;6.698;2023-05-12T02:06:19;98883.81;;;11.98;100.00
9899;BME280;4988;49.238;6.698;2023-05-12T02:08:45;98888.22;;;11.99;100.00
9899;BME280;4988;49.238;6.698;2023-05-12T02:11:10;98889.81;;;11.85;100.00
9899;BME280;4988;49.238;6.698;2023-05-12T02:13:36;98894.00;;;11.89;100.00
9899;BME280;4988;49.238;6.698;2023-05-12T02:16:01;98894.56;;;11.96;100.00
9899;BME280;4988;49.238;6.698;2023-05-12T02:18:26;98888.22;;;11.99;100.00
9899;BME280;4988;49.238;6.698;2023-05-12T02:20:52;98891.47;;;12.04;100.00
9899;BME280;4988;49.238;6.698;2023-05-12T02:23:18;98885.34;;;12.02;100.00
9899;BME280;4988;49.238;6.698;2023-05-12T02:25:43;98882.53;;;12.05;100.00
9899;BME280;4988;49.238;6.698;2023-05-12T02:28:08;98886.28;;;12.01;100.00
9899;BME280;4988;49.238;6.698;2023-05-12T02:30:36;98880.81;;;12.04;100.00
9899;BME280;4988;49.238;6.698;2023-05-12T02:33:01;98878.28;;;12.01;100.00
9899;BME280;4988;49.238;6.698;2023-05-12T02:35:29;98876.66;;;11.98;100.00
9899;BME280;4988;49.238;6.698;2023-05-12T02:37:54;98878.72;;;12.09;100.00
9899;BME280;4988;49.238;6.698;2023-05-12T02:40:20;98874.34;;;12.08;100.00
9899;BME280;4988;49.238;6.698;2023-05-12T02:42:45;98881.50;;;12.07;100.00
9899;BME280;4988;49.238;6.698;2023-05-12T02:45:10;98879.25;;;12.00;100.00
9899;BME280;4988;49.238;6.698;2023-05-12T02:47:36;98880.97;;;12.01;100.00
9899;BME280;4988;49.238;6.698;2023-05-12T02:50:01;98882.19;;;12.11;100.00
9899;BME280;4988;49.238;6.698;2023-05-12T02:52:27;98874.44;;;12.06;100.00
9899;BME280;4988;49.238;6.698;2023-05-12T02:54:53;98869.75;;;11.94;100.00
9899;BME280;4988;49.238;6.698;2023-05-12T02:57:18;98873.78;;;11.85;100.00
9899;BME280;4988;49.238;6.698;2023-05-12T02:59:43;98869.31;;;11.86;100.00
9899;BME280;4988;49.238;6.698;2023-05-12T03:02:09;98871.97;;;11.86;100.00
9899;BME280;4988;49.238;6.698;2023-05-12T03:04:34;98872.84;;;11.86;100.00
9899;BME280;4988;49.238;6.698;2023-05-12T03:06:59;98868.28;;;11.88;100.00
9899;BME280;4988;49.238;6.698;2023-05-12T03:09:25;98869.50;;;11.83;100.00
9899;BME280;4988;49.238;6.698;2023-05-12T03:11:50;98874.66;;;11.86;100.00
9899;BME280;4988;49.238;6.698;2023-05-12T03:14:15;98876.28;;;11.88;100.00
9899;BME280;4988;49.238;6.698;2023-05-12T03:16:41;98868.47;;;11.85;100.00
9899;BME280;4988;49.238;6.698;2023-05-12T03:19:06;98870.94;;;11.72;100.00
9899;BME280;4988;49.238;6.698;2023-05-12T03:21:31;98867.84;;;11.64;100.00
9899;BME280;4988;49.238;6.698;2023-05-12T03:23:56;98880.63;;;11.57;100.00
9899;BME280;4988;49.238;6.698;2023-05-12T03:26:22;98872.56;;;11.59;100.00
9899;BME280;4988;49.238;6.698;2023-05-12T03:28:47;98872.66;;;11.57;100.00
9899;BME280;4988;49.238;6.698;2023-05-12T03:31:12;98876.25;;;11.56;100.00
9899;BME280;4988;49.238;6.698;2023-05-12T03:33:38;98880.03;;;11.52;100.00
9899;BME280;4988;49.238;6.698;2023-05-12T03:36:03;98876.59;;;11.50;100.00
9899;BME280;4988;49.238;6.698;2023-05-12T03:38:29;98879.00;;;11.55;100.00
9899;BME280;4988;49.238;6.698;2023-05-12T03:41:04;98875.50;;;11.54;100.00
9899;BME280;4988;49.238;6.698;2023-05-12T03:43:30;98881.34;;;11.61;100.00
9899;BME280;4988;49.238;6.698;2023-05-12T03:45:56;98869.53;;;11.65;100.00
9899;BME280;4988;49.238;6.698;2023-05-12T03:48:21;98873.59;;;11.56;100.00
9899;BME280;4988;49.238;6.698;2023-05-12T03:50:47;98872.97;;;11.51;100.00
9899;BME280;4988;49.238;6.698;2023-05-12T03:53:12;98872.38;;;11.46;100.00
9899;BME280;4988;49.238;6.698;2023-05-12T03:55:37;98861.88;;;11.43;100.00
9899;BME280;4988;49.238;6.698;2023-05-12T03:58:03;98867.19;;;11.43;100.00
9899;BME280;4988;49.238;6.698;2023-05-12T04:00:28;98867.81;;;11.48;100.00
9899;BME280;4988;49.238;6.698;2023-05-12T04:02:53;98859.06;;;11.62;100.00
9899;BME280;4988;49.238;6.698;2023-05-12T04:05:19;98860.00;;;11.61;100.00
9899;BME280;4988;49.238;6.698;2023-05-12T04:07:44;98860.47;;;11.69;100.00
9899;BME280;4988;49.238;6.698;2023-05-12T04:10:10;98860.53;;;11.68;100.00
9899;BME280;4988;49.238;6.698;2023-05-12T04:12:35;98859.75;;;11.66;100.00
9899;BME280;4988;49.238;6.698;2023-05-12T04:15:00;98861.63;;;11.64;100.00
9899;BME280;4988;49.238;6.698;2023-05-12T04:17:26;98853.63;;;11.64;100.00
9899;BME280;4988;49.238;6.698;2023-05-12T04:19:51;98857.19;;;11.64;100.00
9899;BME280;4988;49.238;6.698;2023-05-12T04:22:17;98858.56;;;11.71;100.00
9899;BME280;4988;49.238;6.698;2023-05-12T04:24:42;98861.84;;;11.77;100.00
9899;BME280;4988;49.238;6.698;2023-05-12T04:27:08;98860.97;;;11.76;100.00
9899;BME280;4988;49.238;6.698;2023-05-12T04:29:33;98856.41;;;11.78;100.00
9899;BME280;4988;49.238;6.698;2023-05-12T04:31:59;98856.31;;;11.80;100.00
9899;BME280;4988;49.238;6.698;2023-05-12T04:34:24;98857.19;;;11.80;100.00
9899;BME280;4988;49.238;6.698;2023-05-12T04:36:49;98853.56;;;11.81;100.00
9899;BME280;4988;49.238;6.698;2023-05-12T04:39:15;98855.28;;;11.82;100.00
9899;BME280;4988;49.238;6.698;2023-05-12T04:41:41;98867.44;;;11.88;100.00
9899;BME280;4988;49.238;6.698;2023-05-12T04:44:06;98861.06;;;11.90;100.00
9899;BME280;4988;49.238;6.698;2023-05-12T04:46:32;98863.25;;;12.00;100.00
9899;BME280;4988;49.238;6.698;2023-05-12T04:48:57;98864.94;;;12.01;100.00
9899;BME280;4988;49.238;6.698;2023-05-12T04:51:22;98861.34;;;12.02;100.00
9899;BME280;4988;49.238;6.698;2023-05-12T04:53:48;98864.91;;;11.85;100.00
9899;BME280;4988;49.238;6.698;2023-05-12T04:56:13;98873.19;;;11.80;100.00
9899;BME280;4988;49.238;6.698;2023-05-12T04:58:38;98869.91;;;11.75;100.00
9899;BME280;4988;49.238;6.698;2023-05-12T05:01:04;98871.97;;;11.70;100.00
9899;BME280;4988;49.238;6.698;2023-05-12T05:03:29;98871.28;;;11.66;100.00
9899;BME280;4988;49.238;6.698;2023-05-12T05:05:54;98879.38;;;11.65;100.00
9899;BME280;4988;49.238;6.698;2023-05-12T05:08:20;98880.16;;;11.67;100.00
9899;BME280;4988;49.238;6.698;2023-05-12T05:10:45;98877.47;;;11.67;100.00
9899;BME280;4988;49.238;6.698;2023-05-12T05:13:11;98880.31;;;11.64;100.00
9899;BME280;4988;49.238;6.698;2023-05-12T05:15:36;98894.56;;;11.63;100.00
9899;BME280;4988;49.238;6.698;2023-05-12T05:18:01;98891.75;;;11.66;100.00
9899;BME280;4988;49.238;6.698;2023-05-12T05:20:27;98893.81;;;11.61;100.00
9899;BME280;4988;49.238;6.698;2023-05-12T05:22:52;98894.75;;;11.59;100.00
9899;BME280;4988;49.238;6.698;2023-05-12T05:25:18;98888.63;;;11.57;100.00
9899;BME280;4988;49.238;6.698;2023-05-12T05:27:43;98898.53;;;11.55;100.00
9899;BME280;4988;49.238;6.698;2023-05-12T05:30:09;98899.72;;;11.50;100.00
9899;BME280;4988;49.238;6.698;2023-05-12T05:32:35;98899.72;;;11.50;100.00
9899;BME280;4988;49.238;6.698;2023-05-12T05:35:04;98897.22;;;11.47;100.00
9899;BME280;4988;49.238;6.698;2023-05-12T05:37:30;98904.50;;;11.43;100.00
9899;BME280;4988;49.238;6.698;2023-05-12T05:39:55;98906.84;;;11.49;100.00
9899;BME280;4988;49.238;6.698;2023-05-12T05:42:21;98905.75;;;11.53;100.00
9899;BME280;4988;49.238;6.698;2023-05-12T05:44:46;98904.63;;;11.57;100.00
9899;BME280;4988;49.238;6.698;2023-05-12T05:47:11;98906.34;;;11.58;100.00
9899;BME280;4988;49.238;6.698;2023-05-12T05:49:36;98904.13;;;11.51;100.00
9899;BME280;4988;49.238;6.698;2023-05-12T05:52:02;98904.72;;;11.56;100.00
9899;BME280;4988;49.238;6.698;2023-05-12T05:54:27;98900.34;;;11.55;100.00
9899;BME280;4988;49.238;6.698;2023-05-12T05:56:53;98903.41;;;11.47;100.00
9899;BME280;4988;49.238;6.698;2023-05-12T05:59:18;98910.53;;;11.47;100.00
9899;BME280;4988;49.238;6.698;2023-05-12T06:01:43;98914.09;;;11.47;100.00
9899;BME280;4988;49.238;6.698;2023-05-12T06:04:09;98909.59;;;11.48;100.00
9899;BME280;4988;49.238;6.698;2023-05-12T06:06:35;98916.31;;;11.55;100.00
9899;BME280;4988;49.238;6.698;2023-05-12T06:09:00;98914.34;;;11.58;100.00
9899;BME280;4988;49.238;6.698;2023-05-12T06:11:25;98912.06;;;11.68;100.00
9899;BME280;4988;49.238;6.698;2023-05-12T06:13:51;98921.53;;;11.74;100.00
9899;BME280;4988;49.238;6.698;2023-05-12T06:16:16;98917.66;;;11.80;100.00
9899;BME280;4988;49.238;6.698;2023-05-12T06:18:42;98919.13;;;11.85;100.00
9899;BME280;4988;49.238;6.698;2023-05-12T06:21:07;98918.94;;;11.88;100.00
9899;BME280;4988;49.238;6.698;2023-05-12T06:23:33;98923.59;;;11.85;100.00
9899;BME280;4988;49.238;6.698;2023-05-12T06:25:59;98927.13;;;11.85;100.00
9899;BME280;4988;49.238;6.698;2023-05-12T06:28:24;98922.75;;;11.84;100.00
9899;BME280;4988;49.238;6.698;2023-05-12T06:30:49;98931.69;;;11.83;100.00
9899;BME280;4988;49.238;6.698;2023-05-12T06:33:15;98927.22;;;11.84;100.00
9899;BME280;4988;49.238;6.698;2023-05-12T06:35:40;98930.50;;;11.89;100.00
9899;BME280;4988;49.238;6.698;2023-05-12T06:38:05;98926.72;;;11.93;100.00
9899;BME280;4988;49.238;6.698;2023-05-12T06:40:31;98923.44;;;11.88;100.00
9899;BME280;4988;49.238;6.698;2023-05-12T06:42:57;98920.69;;;11.89;100.00
9899;BME280;4988;49.238;6.698;2023-05-12T06:45:22;98926.00;;;11.89;100.00
9899;BME280;4988;49.238;6.698;2023-05-12T06:47:48;98927.75;;;11.90;100.00
9899;BME280;4988;49.238;6.698;2023-05-12T06:50:13;98924.81;;;11.95;100.00
9899;BME280;4988;49.238;6.698;2023-05-12T06:52:41;98927.34;;;11.98;100.00
9899;BME280;4988;49.238;6.698;2023-05-12T06:55:07;98931.41;;;12.05;100.00
9899;BME280;4988;49.238;6.698;2023-05-12T06:57:32;98932.63;;;12.16;100.00
9899;BME280;4988;49.238;6.698;2023-05-12T06:59:57;98933.28;;;12.19;100.00
9899;BME280;4988;49.238;6.698;2023-05-12T07:02:23;98937.63;;;12.22;100.00
9899;BME280;4988;49.238;6.698;2023-05-12T07:04:48;98937.16;;;12.30;100.00
9899;BME280;4988;49.238;6.698;2023-05-12T07:07:13;98934.59;;;12.44;100.00
9899;BME280;4988;49.238;6.698;2023-05-12T07:09:39;98933.25;;;12.51;100.00
9899;BME280;4988;49.238;6.698;2023-05-12T07:12:06;98931.78;;;12.62;100.00
9899;BME280;4988;49.238;6.698;2023-05-12T07:14:31;98936.31;;;12.76;100.00
9899;BME280;4988;49.238;6.698;2023-05-12T07:16:57;98945.03;;;12.79;100.00
9899;BME280;4988;49.238;6.698;2023-05-12T07:19:22;98935.28;;;12.78;100.00
9899;BME280;4988;49.238;6.698;2023-05-12T07:21:47;98939.41;;;12.84;100.00
9899;BME280;4988;49.238;6.698;2023-05-12T07:24:13;98937.44;;;12.87;100.00
9899;BME280;4988;49.238;6.698;2023-05-12T07:26:38;98938.38;;;12.86;100.00
9899;BME280;4988;49.238;6.698;2023-05-12T07:29:03;98933.81;;;12.89;100.00
9899;BME280;4988;49.238;6.698;2023-05-12T07:31:30;98929.22;;;12.91;100.00
9899;BME280;4988;49.238;6.698;2023-05-12T07:33:57;98936.13;;;12.95;100.00
9899;BME280;4988;49.238;6.698;2023-05-12T07:36:23;98929.81;;;12.96;100.00
9899;BME280;4988;49.238;6.698;2023-05-12T07:38:48;98934.13;;;12.98;100.00
9899;BME280;4988;49.238;6.698;2023-05-12T07:41:14;98934.19;;;12.97;100.00
9899;BME280;4988;49.238;6.698;2023-05-12T07:43:39;98934.41;;;12.94;100.00
9899;BME280;4988;49.238;6.698;2023-05-12T07:46:04;98935.81;;;12.85;100.00
9899;BME280;4988;49.238;6.698;2023-05-12T07:48:30;98934.56;;;12.91;100.00
9899;BME280;4988;49.238;6.698;2023-05-12T07:50:55;98934.19;;;12.97;100.00
9899;BME280;4988;49.238;6.698;2023-05-12T07:53:21;98939.94;;;13.05;100.00
9899;BME280;4988;49.238;6.698;2023-05-12T07:55:46;98937.44;;;13.02;100.00
9899;BME280;4988;49.238;6.698;2023-05-12T07:58:12;98938.63;;;13.12;100.00
9899;BME280;4988;49.238;6.698;2023-05-12T08:00:38;98944.41;;;13.21;100.00
9899;BME280;4988;49.238;6.698;2023-05-12T08:03:04;98943.41;;;13.22;100.00
9899;BME280;4988;49.238;6.698;2023-05-12T08:05:30;98942.03;;;13.30;100.00
9899;BME280;4988;49.238;6.698;2023-05-12T08:07:56;98943.03;;;13.28;100.00
9899;BME280;4988;49.238;6.698;2023-05-12T08:10:21;98941.53;;;13.24;100.00
9899;BME280;4988;49.238;6.698;2023-05-12T08:12:50;98943.03;;;13.13;100.00
9899;BME280;4988;49.238;6.698;2023-05-12T08:15:15;98945.59;;;13.15;100.00
9899;BME280;4988;49.238;6.698;2023-05-12T08:17:41;98938.28;;;13.18;100.00
9899;BME280;4988;49.238;6.698;2023-05-12T08:20:06;98941.41;;;13.25;100.00
9899;BME280;4988;49.238;6.698;2023-05-12T08:22:33;98945.53;;;13.31;100.00
9899;BME280;4988;49.238;6.698;2023-05-12T08:24:58;98941.47;;;13.40;100.00
9899;BME280;4988;49.238;6.698;2023-05-12T08:27:23;98944.56;;;13.48;100.00
9899;BME280;4988;49.238;6.698;2023-05-12T08:29:49;98946.19;;;13.50;100.00
9899;BME280;4988;49.238;6.698;2023-05-12T08:32:14;98944.84;;;13.58;100.00
9899;BME280;4988;49.238;6.698;2023-05-12T08:34:40;98941.28;;;13.57;100.00
9899;BME280;4988;49.238;6.698;2023-05-12T08:37:05;98938.56;;;13.59;100.00
9899;BME280;4988;49.238;6.698;2023-05-12T08:39:31;98938.44;;;13.60;100.00
9899;BME280;4988;49.238;6.698;2023-05-12T08:42:34;98944.47;;;13.64;100.00
9899;BME280;4988;49.238;6.698;2023-05-12T08:45:01;98941.13;;;13.75;100.00
9899;BME280;4988;49.238;6.698;2023-05-12T08:47:30;98949.84;;;13.78;100.00
9899;BME280;4988;49.238;6.698;2023-05-12T08:50:04;98942.94;;;13.89;100.00
9899;BME280;4988;49.238;6.698;2023-05-12T08:52:33;98944.28;;;13.96;100.00
9899;BME280;4988;49.238;6.698;2023-05-12T08:54:59;98942.88;;;14.18;100.00
9899;BME280;4988;49.238;6.698;2023-05-12T08:57:24;98943.38;;;14.24;100.00
9899;BME280;4988;49.238;6.698;2023-05-12T08:59:52;98940.06;;;14.34;100.00
9899;BME280;4988;49.238;6.698;2023-05-12T09:02:20;98937.31;;;14.35;100.00
9899;BME280;4988;49.238;6.698;2023-05-12T09:04:46;98932.22;;;14.45;100.00
9899;BME280;4988;49.238;6.698;2023-05-12T09:07:13;98943.19;;;14.55;100.00
9899;BME280;4988;49.238;6.698;2023-05-12T09:09:42;98944.88;;;14.70;100.00
9899;BME280;4988;49.238;6.698;2023-05-12T09:12:11;98931.41;;;14.85;100.00
9899;BME280;4988;49.238;6.698;2023-05-12T09:14:37;98938.00;;;15.06;99.54
9899;BME280;4988;49.238;6.698;2023-05-12T09:17:05;98943.69;;;15.15;98.59
9899;BME280;4988;49.238;6.698;2023-05-12T09:19:30;98942.19;;;15.23;95.84
9899;BME280;4988;49.238;6.698;2023-05-12T09:21:57;98933.84;;;15.28;95.71
9899;BME280;4988;49.238;6.698;2023-05-12T09:24:36;98934.03;;;15.25;94.66
9899;BME280;4988;49.238;6.698;2023-05-12T09:27:02;98932.53;;;15.21;93.25
9899;BME280;4988;49.238;6.698;2023-05-12T09:29:28;98934.63;;;15.30;94.34
9899;BME280;4988;49.238;6.698;2023-05-12T09:31:56;98938.13;;;15.31;96.88
9899;BME280;4988;49.238;6.698;2023-05-12T09:34:33;98936.00;;;15.49;94.34
9899;BME280;4988;49.238;6.698;2023-05-12T09:37:06;98932.78;;;15.56;93.44
9899;BME280;4988;49.238;6.698;2023-05-12T09:39:32;98933.97;;;15.65;94.79
9899;BME280;4988;49.238;6.698;2023-05-12T09:41:57;98939.34;;;15.78;94.77
9899;BME280;4988;49.238;6.698;2023-05-12T09:44:23;98933.66;;;15.83;90.87
9899;BME280;4988;49.238;6.698;2023-05-12T09:46:50;98930.41;;;15.77;90.33
9899;BME280;4988;49.238;6.698;2023-05-12T09:49:19;98934.69;;;15.80;91.69
9899;BME280;4988;49.238;6.698;2023-05-12T09:51:45;98939.22;;;15.80;91.12
9899;BME280;4988;49.238;6.698;2023-05-12T09:54:11;98934.41;;;15.85;89.59
9899;BME280;4988;49.238;6.698;2023-05-12T09:56:37;98930.44;;;15.90;87.21
9899;BME280;4988;49.238;6.698;2023-05-12T09:59:03;98942.84;;;16.04;88.86
9899;BME280;4988;49.238;6.698;2023-05-12T10:01:29;98940.03;;;16.19;88.31
9899;BME280;4988;49.238;6.698;2023-05-12T10:03:56;98934.22;;;16.25;86.11
9899;BME280;4988;49.238;6.698;2023-05-12T10:06:36;98938.91;;;16.34;85.94
9899;BME280;4988;49.238;6.698;2023-05-12T10:09:18;98933.63;;;16.46;84.07
9899;BME280;4988;49.238;6.698;2023-05-12T10:11:45;98936.13;;;16.60;87.34
9899;BME280;4988;49.238;6.698;2023-05-12T10:14:12;98935.91;;;16.63;85.89
9899;BME280;4988;49.238;6.698;2023-05-12T10:16:39;98930.75;;;16.60;84.45
9899;BME280;4988;49.238;6.698;2023-05-12T10:19:05;98929.38;;;16.54;84.47
9899;BME280;4988;49.238;6.698;2023-05-12T10:21:31;98932.53;;;16.48;84.35
9899;BME280;4988;49.238;6.698;2023-05-12T10:23:57;98940.16;;;16.42;84.41
9899;BME280;4988;49.238;6.698;2023-05-12T10:26:23;98936.56;;;16.30;83.23
9899;BME280;4988;49.238;6.698;2023-05-12T10:28:49;98933.78;;;16.31;80.87
9899;BME280;4988;49.238;6.698;2023-05-12T10:31:16;98931.81;;;16.33;81.30
9899;BME280;4988;49.238;6.698;2023-05-12T10:33:41;98934.22;;;16.49;81.99
9899;BME280;4988;49.238;6.698;2023-05-12T10:36:17;98930.88;;;16.59;82.12
9899;BME280;4988;49.238;6.698;2023-05-12T10:38:46;98929.34;;;16.79;82.25
9899;BME280;4988;49.238;6.698;2023-05-12T10:41:14;98914.81;;;16.94;80.58
9899;BME280;4988;49.238;6.698;2023-05-12T10:43:42;98925.13;;;17.12;79.28
9899;BME280;4988;49.238;6.698;2023-05-12T10:48:58;98928.34;;;17.28;78.78
9899;BME280;4988;49.238;6.698;2023-05-12T10:51:29;98917.13;;;17.46;77.18
9899;BME280;4988;49.238;6.698;2023-05-12T10:54:05;98907.59;;;17.53;75.43
9899;BME280;4988;49.238;6.698;2023-05-12T10:59:13;98915.03;;;17.83;77.14
9899;BME280;4988;49.238;6.698;2023-05-12T11:01:40;98910.78;;;17.81;73.05
9899;BME280;4988;49.238;6.698;2023-05-12T11:04:13;98912.50;;;17.82;73.26
9899;BME280;4988;49.238;6.698;2023-05-12T11:06:40;98918.13;;;17.79;74.80
9899;BME280;4988;49.238;6.698;2023-05-12T11:09:06;98908.56;;;17.75;74.96
9899;BME280;4988;49.238;6.698;2023-05-12T11:11:32;98916.03;;;17.60;74.17
9899;BME280;4988;49.238;6.698;2023-05-12T11:13:57;98912.38;;;17.49;75.80
9899;BME280;4988;49.238;6.698;2023-05-12T11:16:23;98915.41;;;17.33;73.79
9899;BME280;4988;49.238;6.698;2023-05-12T11:19:04;98922.44;;;17.12;74.83
9899;BME280;4988;49.238;6.698;2023-05-12T11:21:33;98917.78;;;17.02;77.06
9899;BME280;4988;49.238;6.698;2023-05-12T11:24:00;98920.31;;;16.93;78.03
9899;BME280;4988;49.238;6.698;2023-05-12T11:26:27;98920.66;;;16.75;75.54
9899;BME280;4988;49.238;6.698;2023-05-12T11:28:53;98918.81;;;16.64;77.00
9899;BME280;4988;49.238;6.698;2023-05-12T11:31:19;98921.19;;;16.56;77.14
9899;BME280;4988;49.238;6.698;2023-05-12T11:33:46;98924.22;;;16.51;78.06
9899;BME280;4988;49.238;6.698;2023-05-12T11:36:11;98928.50;;;16.54;77.72
9899;BME280;4988;49.238;6.698;2023-05-12T11:38:46;98923.91;;;16.56;77.44
9899;BME280;4988;49.238;6.698;2023-05-12T11:41:12;98926.34;;;16.59;77.90
9899;BME280;4988;49.238;6.698;2023-05-12T11:43:37;98924.81;;;16.68;78.00
9899;BME280;4988;49.238;6.698;2023-05-12T11:46:03;98927.44;;;16.81;78.09
9899;BME280;4988;49.238;6.698;2023-05-12T11:48:33;98920.31;;;16.93;75.05
9899;BME280;4988;49.238;6.698;2023-05-12T11:50:59;98920.94;;;16.96;73.25
9899;BME280;4988;49.238;6.698;2023-05-12T11:53:25;98918.88;;;17.11;74.17
9899;BME280;4988;49.238;6.698;2023-05-12T11:55:52;98924.91;;;17.26;73.35
9899;BME280;4988;49.238;6.698;2023-05-12T11:58:25;98925.81;;;17.38;72.82
9899;BME280;4988;49.238;6.698;2023-05-12T12:00:53;98919.81;;;17.46;73.32
9899;BME280;4988;49.238;6.698;2023-05-12T12:03:19;98923.88;;;17.63;75.64
9899;BME280;4988;49.238;6.698;2023-05-12T12:06:00;98920.94;;;17.66;70.27
9899;BME280;4988;49.238;6.698;2023-05-12T12:08:26;98924.09;;;17.60;71.46
9899;BME280;4988;49.238;6.698;2023-05-12T12:10:51;98921.53;;;17.69;69.93
9899;BME280;4988;49.238;6.698;2023-05-12T12:13:21;98920.44;;;17.61;69.08
9899;BME280;4988;49.238;6.698;2023-05-12T12:15:47;98921.53;;;17.47;70.42
9899;BME280;4988;49.238;6.698;2023-05-12T12:18:13;98918.84;;;17.47;71.45
9899;BME280;4988;49.238;6.698;2023-05-12T12:20:39;98914.44;;;17.57;70.85
9899;BME280;4988;49.238;6.698;2023-05-12T12:23:05;98931.34;;;17.59;72.22
9899;BME280;4988;49.238;6.698;2023-05-12T12:25:30;98927.06;;;17.57;73.81
9899;BME280;4988;49.238;6.698;2023-05-12T12:27:55;98930.09;;;17.52;72.72
9899;BME280;4988;49.238;6.698;2023-05-12T12:30:21;98929.34;;;17.50;73.43
9899;BME280;4988;49.238;6.698;2023-05-12T12:32:46;98929.59;;;17.47;73.35
9899;BME280;4988;49.238;6.698;2023-05-12T12:35:12;98927.63;;;17.49;74.29
9899;BME280;4988;49.238;6.698;2023-05-12T12:37:38;98931.34;;;17.59;74.15
9899;BME280;4988;49.238;6.698;2023-05-12T12:40:04;98919.59;;;17.72;72.21
9899;BME280;4988;49.238;6.698;2023-05-12T12:42:36;98919.81;;;17.68;71.57
9899;BME280;4988;49.238;6.698;2023-05-12T12:45:03;98926.66;;;17.61;73.25
9899;BME280;4988;49.238;6.698;2023-05-12T12:47:29;98931.44;;;17.46;72.98
9899;BME280;4988;49.238;6.698;2023-05-12T12:49:54;98946.59;;;17.36;75.24
9899;BME280;4988;49.238;6.698;2023-05-12T12:52:20;98957.66;;;17.20;79.11
9899;BME280;4988;49.238;6.698;2023-05-12T12:54:45;98953.22;;;17.08;80.73
9899;BME280;4988;49.238;6.698;2023-05-12T12:57:10;98960.88;;;17.01;86.08
9899;BME280;4988;49.238;6.698;2023-05-12T12:59:36;98955.25;;;16.93;90.81
9899;BME280;4988;49.238;6.698;2023-05-12T13:02:01;98959.19;;;16.76;93.35
9899;BME280;4988;49.238;6.698;2023-05-12T13:04:26;98957.63;;;16.60;93.60
9899;BME280;4988;49.238;6.698;2023-05-12T13:06:52;98955.19;;;16.57;92.96
9899;BME280;4988;49.238;6.698;2023-05-12T13:09:17;98957.22;;;16.53;95.36
9899;BME280;4988;49.238;6.698;2023-05-12T13:11:43;98949.50;;;16.49;96.22
9899;BME280;4988;49.238;6.698;2023-05-12T13:14:08;98957.44;;;16.50;94.67
9899;BME280;4988;49.238;6.698;2023-05-12T13:16:34;98949.50;;;16.49;95.34